Quincy, IL

8:06 PM CDT on August 28, 2015 (GMT -0500)
Tri-State Storm Chasers - WL#1 | | Change Station
CLOSE
Current Station
Personal Weather Station
Location: Quincy, IL
Elevation: 659 ft
Nearby Weather Stations

Elev 659 ft 39.93 °N, 91.37 °W | Updated 5 minutes ago

Overcast
Overcast
73.2 °F
Feels Like 75 °F
N
1.6
Wind Variable Wind from SSW

Today
High -- | Low -- °F
--% Chance of Precip.
Yesterday
High -- | Low -- °F
Precip. -- in
6:29 AM 7:43 PM
Waxing Gibbous, 99% visible
Pressure 29.94 in
Visibility 10.0 miles
Clouds Overcast 11000 ft
Heat Index 75 °F
Dew Point 64 °F
Humidity 72%
Rainfall 0.00 in
Snow Depth Not available.
UV 0 out of 12
Pollen 10.50 out of 12
Air Quality Not available.
Flu Activity Not available.
METAR KUIN 290054Z AUTO 17008KT 10SM OVC110 23/17 A2995 RMK AO2 SLP138 T02280167
Pressure 29.94 in
Visibility 10.0 miles
Clouds Overcast 11000 ft
Heat Index 75 °F
Dew Point 64 °F
Humidity 72%
Rainfall 0.00 in
Snow Depth Not available.
UV 0 out of 12
Pollen 10.50 out of 12
Air Quality Not available.
Flu Activity Not available.
METAR KUIN 290054Z AUTO 17008KT 10SM OVC110 23/17 A2995 RMK AO2 SLP138 T02280167

10-Day Weather Forecast

×

Almanac

Astronomy

Aug. 28, 2015 Rise Set
Actual Time
Civil Twilight
Nautical Twilight
Astronomical Twilight
Moon
Length of Visible Light
Length of Day
Tomorrow will be .
, % of the Moon is Illuminated

Today's Extremes

State Highs State Lows

Community

WunderPhotos

Upload Photos

1,850,557 photos uploaded!

WunderBlogs® & News

Nearby

Air Quality

  Air Quality AQ Index Pollutant
Not available.

Snow Depth

Station Depth Elevation

Earthquake Activity

City Distance Mag. Time & Date
Minimum magnitude displayed is 2.5.

Coastal Water Temperatures

Place Temperature

Stations

Nearby Weather Stations

Station Location Temp. Windchill Dew Point Humidity Wind Precip. Elev Updated Type